FYGA4: White River At Fayetteville, AR

                                SHEF ID:       FYGA4     White River near Fayetteville, A
STATION TYPE: Stream Gauge

PRECIP STAGE RIV-FLOW WTR-TEMP DIS-OXY PH CONDUCT BAT-LOAD
in ft cfs F mg/l su umho/cm volt
Ccp-Rev Ccp-Rev Ccp-Rev Ccp-Rev Ccp-Rev Ccp-Rev Ccp-Rev Ccp-Rev
(America/Chicago)
12/06 00:00 0.00 2.40 116 42.91 11.08 7.51 114 12.57
12/06 01:00 0.00 2.40 116 42.94 11.08 7.52 113 12.57
12/06 02:00 0.00 2.39 114 42.98 11.04 7.52 112 12.57
12/06 03:00 0.00 2.39 114 42.98 11.04 7.52 113 12.57
12/06 04:00 0.00 2.39 114 42.96 11.04 7.52 113 12.49
12/06 05:00 0.00 2.39 114 43.03 11.03 7.51 113 12.49
12/06 06:00 0.00 2.39 114 43.09 11.01 7.52 113 12.41
12/06 07:00 0.00 2.39 114 43.12 11.03 7.51 113 12.41
12/06 08:00 0.00 2.39 114 43.16 11.04 7.51 113 12.41
12/06 09:00 0.00 2.39 114 43.23 11.16 7.53 113 12.41
12/06 10:00 0.00 2.38 112 43.45 11.36 7.56 113 12.97
12/06 11:00 0.00 2.37 110 44.04 11.55 7.61 113 13.44
12/06 12:00 0.00 2.37 110 45.00 11.67 7.63 114 14.56
12/06 13:00 0.00 2.36 108 45.81 11.73 7.67 114 14.00
12/06 14:00 0.00 2.37 110 46.24 11.74 7.71 112 13.92
12/06 15:00 0.00 2.37 110 46.33 11.59 7.70 112 13.92
12/06 16:00 0.00 2.37 110 46.02 11.45 7.69 112 13.21
12/06 17:00 0.00 2.37 110 45.50 11.29 7.66 113 13.05
12/06 18:00 0.00 2.36 108 45.07 11.12 7.61 113 12.81
12/06 19:00 0.00 2.36 108 44.73 11.01 7.58 114 12.73
12/06 20:00 0.00 2.35 106 44.51 10.92 7.56 115 12.73
12/06 21:00 0.00 2.34 104 44.46 10.89 7.55 115 12.73
12/06 22:00 0.00 2.35 106 44.47 10.84 7.53 115 12.65
12/06 23:00 0.00 2.34 104 44.51 10.84 7.53 115 12.65
Data processed at Sun 07Dec2025 05:10 GMT

NOTICE: If you are parsing this page

Please convert to using our Data API. Starting January 1st, 2026 we will be migrating to: https://water.usace.army.mil with modern pages rendered in JavaScript. You will no longer be able to scrape this page! CWMSDataAPI (CDA)

Timeseries IDs (TSIDs)

TSIDs used from left to right in the data table
FAYE.Precip-Inc.Total.1Hour.1Hour.Ccp-Rev
FAYE.Stage.Inst.1Hour.0.Ccp-Rev
FAYE.Flow.Inst.1Hour.0.Ccp-Rev
FAYE.Temp-Water.Inst.1Hour.0.Ccp-Rev
FAYE.Conc-DO.Inst.1Hour.0.Ccp-Rev
FAYE.pH.Inst.1Hour.0.Ccp-Rev
FAYE.Cond-Water.Inst.1Hour.0.Ccp-Rev
FAYE.Volt-Battery Load.Inst.1Hour.0.Ccp-Rev

                            

All information presented herein is the property of the government of the United States of America and may be revised or deleted at any time without prior notice. Dissemination of this information without the expressed written consent of the Public Affairs Office, Tulsa District U.S. Army Corps of Engineers is strictly prohibited. These data are gathered electronically and, as presented, have NOT undergone any form of quality control. These data are NOT guaranteed to be valid or correct.